Data for 03/13/2005

Time Sea-Level Adjusted Pressure Absolute Pressure Temperature Relative Humidity Dew Point   
(mb) (inHg) (mb) (inHg) (C) (F) (%) (C) (F)
00:05 1023 30.21 852 25.16 -2.6 27.4 78 -5.9 21.3
00:10 1023 30.21 852 25.16 -2.6 27.4 77 -6 21.2
00:15 1023 30.21 852 25.16 -2.6 27.3 77 -6 21.1
00:20 1023 30.21 852 25.16 -2.5 27.4 77 -6 21.3
00:25 1023 30.21 852 25.16 -2.5 27.4 78 -5.9 21.4
00:30 1023 30.21 852 25.16 -2.5 27.4 77 -6 21.2
00:35 1023 30.21 852 25.16 -2.7 27.2 78 -6 21.2
00:40 1023 30.21 852 25.16 -2.8 26.9 79 -6 21.3
00:45 1023 30.21 852 25.16 -3 26.6 80 -6 21.2
00:50 1023 30.21 852 25.16 -3.2 26.2 80 -6.3 20.7
00:55 1023 30.21 852 25.16 -3.2 26.2 78 -6.4 20.4
01:00 1023 30.21 852 25.16 -3.1 26.5 78 -6.4 20.4
01:05 1023 30.21 852 25.16 -2.9 26.7 77 -6.4 20.4
01:10 1023 30.21 852 25.16 -2.9 26.8 77 -6.4 20.4
01:15 1023 30.21 852 25.16 -2.7 27.1 76 -6.4 20.5
01:20 1023 30.21 852 25.16 -2.7 27.2 76 -6.4 20.6
01:25 1023 30.21 852 25.16 -2.7 27.2 76 -6.4 20.4
01:30 1023 30.21 852 25.16 -2.8 27 76 -6.5 20.4
01:35 1023 30.21 852 25.16 -2.8 26.9 77 -6.4 20.5
01:40 1023 30.21 852 25.16 -2.8 26.9 76 -6.5 20.2
01:45 1023 30.21 852 25.16 -2.9 26.9 76 -6.5 20.2
01:50 1023 30.21 852 25.16 -3 26.7 76 -6.7 20
01:55 1023 30.21 852 25.16 -3.2 26.3 76 -6.8 19.8
02:00 1023 30.21 852 25.16 -3.3 26 77 -6.8 19.7
02:05 1023 30.21 852 25.16 -3.5 25.8 77 -6.9 19.6
02:10 1023 30.21 852 25.16 -3.7 25.4 78 -7 19.3
02:15 1023 30.21 852 25.16 -3.7 25.3 77 -7.2 19.1
02:20 1022 30.18 852 25.16 -3.7 25.4 77 -7.2 19.1
02:25 1022 30.18 852 25.16 -3.6 25.5 76 -7.3 18.9
02:30 1022 30.18 851 25.13 -3.4 25.9 75 -7.2 19.1
02:35 1022 30.18 851 25.13 -3.5 25.6 76 -7.3 18.9
02:40 1022 30.18 851 25.13 -3.7 25.3 76 -7.4 18.7
02:45 1022 30.18 851 25.13 -3.9 25.1 77 -7.4 18.7
02:50 1022 30.18 851 25.13 -3.7 25.3 75 -7.5 18.5
02:55 1022 30.18 851 25.13 -3.7 25.4 75 -7.5 18.4
03:00 1022 30.18 851 25.13 -3.7 25.4 75 -7.4 18.6
03:05 1022 30.18 851 25.13 -3.9 25 76 -7.6 18.4
03:10 1022 30.18 851 25.13 -4.1 24.7 77 -7.5 18.5
03:15 1022 30.18 851 25.13 -4.3 24.3 78 -7.5 18.5
03:20 1022 30.18 851 25.13 -4.5 23.9 80 -7.4 18.6
03:25 1022 30.18 851 25.13 -4.8 23.4 82 -7.4 18.6
03:30 1022 30.18 851 25.13 -5 23 83 -7.5 18.5
03:35 1022 30.18 851 25.13 -5.2 22.7 83 -7.7 18.2
03:40 1022 30.18 851 25.13 -4.9 23.1 80 -7.8 17.9
03:45 1022 30.18 851 25.13 -4.6 23.7 78 -7.8 17.9
03:50 1022 30.18 851 25.13 -4.4 24 77 -7.8 17.9
03:55 1022 30.18 851 25.13 -4.4 24.1 78 -7.7 18.2
04:00 1022 30.18 851 25.13 -4.5 24 78 -7.8 17.9
04:05 1022 30.18 851 25.13 -4.4 24 77 -7.8 17.9
04:10 1022 30.18 851 25.13 -4.3 24.3 79 -7.4 18.7
04:15 1022 30.18 851 25.13 -4.1 24.7 77 -7.5 18.5
04:20 1022 30.18 851 25.13 -4.1 24.6 78 -7.4 18.6
04:25 1022 30.18 851 25.13 -4.2 24.5 80 -7.2 19.1
04:30 1022 30.18 851 25.13 -4.2 24.5 81 -7 19.3
04:35 1022 30.18 851 25.13 -4.2 24.4 80 -7.1 19.1
04:40 1022 30.18 851 25.13 -4.4 24.1 80 -7.3 18.9
04:45 1022 30.18 851 25.13 -4.6 23.6 80 -7.7 18.2
04:50 1022 30.18 851 25.13 -5 23 81 -7.8 18
04:55 1022 30.18 851 25.13 -5.1 22.8 81 -7.8 17.9
05:00 1022 30.18 851 25.13 -5.3 22.5 81 -8.1 17.4
05:05 1022 30.18 851 25.13 -5.4 22.2 83 -7.9 17.8
05:10 1022 30.18 851 25.13 -5.2 22.6 80 -8.1 17.4
05:15 1022 30.18 851 25.13 -5.2 22.6 81 -8 17.6
05:20 1022 30.18 851 25.13 -5.1 22.8 82 -7.8 17.9
05:25 1022 30.18 851 25.13 -5.2 22.7 82 -7.8 17.9
05:30 1022 30.18 851 25.13 -5.2 22.6 82 -7.9 17.8
05:35 1022 30.18 851 25.13 -5.2 22.6 81 -8 17.7
05:40 1022 30.18 851 25.13 -5.2 22.6 81 -8 17.6
05:45 1022 30.18 851 25.13 -5.1 22.8 77 -8.5 16.7
05:50 1022 30.18 851 25.13 -5 22.9 77 -8.5 16.7
05:55 1022 30.18 851 25.13 -5.2 22.6 77 -8.7 16.3
06:00 1022 30.18 851 25.13 -5.7 21.8 78 -8.9 15.9
06:05 1022 30.18 851 25.13 -6 21.2 80 -8.9 15.9
06:10 1022 30.18 851 25.13 -6.2 20.8 80 -9.1 15.6
06:15 1022 30.18 851 25.13 -6.4 20.5 80 -9.2 15.4
06:20 1022 30.18 851 25.13 -6.6 20.2 81 -9.3 15.3
06:25 1022 30.18 851 25.13 -6.6 20.1 82 -9.3 15.3
06:30 1022 30.18 851 25.13 -6.5 20.2 81 -9.2 15.4
06:35 1022 30.18 851 25.13 -6.5 20.3 81 -9.2 15.5
06:40 1022 30.18 851 25.13 -6.2 20.8 79 -9.2 15.4
06:45 1022 30.18 851 25.13 -5.9 21.4 79 -9 15.7
06:50 1022 30.18 851 25.13 -5.8 21.6 77 -9.2 15.4
06:55 1022 30.18 851 25.13 -5.9 21.4 78 -9.1 15.6
07:00 1021 30.15 851 25.13 -5.9 21.4 78 -9.2 15.5
07:05 1021 30.15 851 25.13 -5.9 21.3 78 -9.2 15.5
07:10 1021 30.15 851 25.13 -5.9 21.3 78 -9.1 15.6
07:15 1021 30.15 851 25.13 -5.9 21.3 79 -8.9 15.9
07:20 1022 30.18 851 25.13 -5.8 21.6 80 -8.7 16.3
07:25 1022 30.18 851 25.13 -5.8 21.6 79 -8.8 16.1
07:30 1022 30.18 851 25.13 -5.6 21.8 79 -8.7 16.3
07:35 1022 30.18 851 25.13 -5.6 22 79 -8.7 16.4
07:40 1022 30.18 851 25.13 -5.4 22.4 79 -8.5 16.7
07:45 1022 30.18 851 25.13 -5.2 22.7 78 -8.4 16.8
07:50 1022 30.18 851 25.13 -4.9 23.1 77 -8.4 16.9
07:55 1022 30.18 851 25.13 -4.6 23.8 75 -8.4 16.8
08:00 1022 30.18 851 25.13 -3.7 25.4 70 -8.4 16.9
08:05 1022 30.18 851 25.13 -2.8 27 68 -7.9 17.8
08:10 1022 30.18 851 25.13 -2.6 27.3 67 -7.9 17.7
08:15 1022 30.18 851 25.13 -2.6 27.4 66 -8 17.6
08:20 1022 30.18 851 25.13 -3 26.6 68 -8 17.5
08:25 1022 30.18 851 25.13 -2.8 27 67 -8 17.6
08:30 1022 30.18 851 25.13 -2.1 28.3 63 -8.3 17.1
08:35 1022 30.18 851 25.13 -1.4 29.4 61 -8.1 17.5
08:40 1022 30.18 851 25.13 -1.5 29.2 62 -7.9 17.8
08:45 1022 30.18 851 25.13 -1.6 29.1 61 -8.1 17.4
08:50 1022 30.18 851 25.13 -1.7 28.9 63 -7.8 17.9
08:55 1022 30.18 851 25.13 -1.9 28.6 62 -8.1 17.4
09:00 1022 30.18 851 25.13 -2.1 28.2 66 -7.7 18.1
09:05 1022 30.18 851 25.13 -1.9 28.5 65 -7.6 18.3
09:10 1022 30.18 851 25.13 -2.1 28.1 68 -7.2 19
09:15 1022 30.18 851 25.13 -2.3 27.9 68 -7.4 18.8
09:20 1022 30.18 851 25.13 -1.9 28.6 66 -7.4 18.6
09:25 1022 30.18 851 25.13 -1.7 28.9 66 -7.1 19.1
09:30 1022 30.18 851 25.13 -1.6 29.2 66 -7.1 19.3
09:35 1022 30.18 851 25.13 -1.4 29.4 68 -6.7 20
09:40 1022 30.18 851 25.13 -1.9 28.6 70 -6.7 19.9
09:45 1022 30.18 851 25.13 -2 28.5 68 -7 19.4
09:50 1022 30.18 851 25.13 -1.7 28.9 71 -6.3 20.6
09:55 1022 30.18 851 25.13 -0.8 30.6 65 -6.6 20.1
10:00 1022 30.18 851 25.13 -0.5 31.1 63 -6.6 20
10:05 1022 30.18 851 25.13 -0.8 30.6 67 -6.1 21
10:10 1022 30.18 851 25.13 -0.6 31 66 -6.2 20.8
10:15 1022 30.18 851 25.13 0 32 62 -6.3 20.6
10:20 1022 30.18 851 25.13 0.1 32.2 60 -6.7 20
10:25 1022 30.18 851 25.13 0.4 32.7 60 -6.4 20.5
10:30 1022 30.18 851 25.13 0.2 32.3 63 -6 21.2
10:35 1022 30.18 851 25.13 0.2 32.3 61 -6.4 20.4
10:40 1022 30.18 851 25.13 0.3 32.6 58 -7 19.4
10:45 1022 30.18 851 25.13 0.7 33.2 57 -6.9 19.5
10:50 1022 30.18 851 25.13 0.6 33 59 -6.5 20.2
10:55 1022 30.18 851 25.13 1.1 34 55 -7 19.3
11:00 1022 30.18 851 25.13 0.7 33.3 59 -6.5 20.3
11:05 1022 30.18 851 25.13 1.1 34 59 -6.1 21
11:10 1022 30.18 851 25.13 1.6 34.8 55 -6.6 20.2
11:15 1022 30.18 851 25.13 1.5 34.8 53 -6.9 19.5
11:20 1022 30.18 851 25.13 1.4 34.6 58 -6.1 21.1
11:25 1022 30.18 851 25.13 1.7 35.1 52 -7.2 19
11:30 1022 30.18 851 25.13 1 33.7 56 -6.8 19.7
11:35 1022 30.18 851 25.13 0.5 33 58 -6.9 19.6
11:40 1022 30.18 851 25.13 1 33.8 56 -6.9 19.6
11:45 1022 30.18 851 25.13 1.4 34.5 57 -6.1 21
11:50 1022 30.18 851 25.13 1.8 35.2 52 -7 19.3
11:55 1022 30.18 851 25.13 1.5 34.7 54 -6.7 19.9
12:00 1022 30.18 851 25.13 1.6 34.9 56 -6.3 20.7
12:05 1022 30.18 851 25.13 2 35.5 55 -6.1 21
12:10 1022 30.18 851 25.13 2.2 36 52 -6.6 20.1
12:15 1022 30.18 851 25.13 1.9 35.5 52 -6.8 19.7
12:20 1022 30.18 851 25.13 1.9 35.5 53 -6.6 20.1
12:25 1022 30.18 851 25.13 2.1 35.8 52 -6.6 20.1
12:30 1022 30.18 851 25.13 1.9 35.4 54 -6.5 20.2
12:35 1022 30.18 851 25.13 1.5 34.7 55 -6.6 20.2
12:40 1022 30.18 851 25.13 1.5 34.7 55 -6.6 20.2
12:45 1022 30.18 851 25.13 1.7 35.1 53 -6.8 19.7
12:50 1022 30.18 851 25.13 1.7 35.1 52 -7 19.4
12:55 1022 30.18 851 25.13 1.7 35.1 52 -7 19.5
13:00 1022 30.18 851 25.13 1.6 34.9 54 -6.6 20.1
13:05 1022 30.18 851 25.13 1.2 34.2 55 -6.9 19.5
13:10 1022 30.18 851 25.13 1.1 34.1 53 -7.3 18.9
13:15 1022 30.18 851 25.13 1.1 34 55 -7 19.4
13:20 1022 30.18 851 25.13 1.2 34.1 55 -7 19.4
13:25 1022 30.18 851 25.13 1.5 34.8 53 -7.1 19.2
13:30 1022 30.18 851 25.13 1.8 35.2 51 -7.2 19
13:35 1022 30.18 851 25.13 1.7 35 54 -6.8 19.8
13:40 1022 30.18 851 25.13 1.5 34.7 55 -6.7 20
13:45 1022 30.18 851 25.13 1.3 34.3 56 -6.6 20.1
13:50 1022 30.18 851 25.13 1.3 34.4 56 -6.6 20.1
13:55 1022 30.18 851 25.13 1.3 34.4 55 -6.7 19.9
14:00 1022 30.18 851 25.13 0.8 33.5 57 -6.7 20
14:05 1022 30.18 851 25.13 0.8 33.4 58 -6.6 20.2
14:10 1022 30.18 851 25.13 0.8 33.4 58 -6.4 20.4
14:15 1022 30.18 851 25.13 0.8 33.5 59 -6.3 20.6
14:20 1022 30.18 851 25.13 0.7 33.2 62 -5.8 21.6
14:25 1022 30.18 851 25.13 0.6 33 65 -5.4 22.3
14:30 1022 30.18 851 25.13 0.8 33.5 61 -5.9 21.5
14:35 1022 30.18 851 25.13 0.8 33.5 61 -5.8 21.6
14:40 1022 30.18 851 25.13 0.5 32.9 63 -5.8 21.6
14:45 1022 30.18 851 25.13 0.6 33.2 59 -6.5 20.3
14:50 1022 30.18 851 25.13 1 33.9 58 -6.2 20.8
14:55 1022 30.18 851 25.13 0.9 33.6 61 -5.9 21.5
15:00 1022 30.18 851 25.13 0.7 33.2 66 -5 23
15:05 1022 30.18 851 25.13 0.8 33.5 59 -6.3 20.7
15:10 1022 30.18 851 25.13 0.7 33.3 55 -7.3 18.9
15:15 1022 30.18 851 25.13 0.7 33.3 50 -8.5 16.8
15:20 1022 30.18 851 25.13 0.8 33.4 52 -8.1 17.5
15:25 1022 30.18 851 25.13 1 33.7 54 -7.3 18.8
15:30 1022 30.18 851 25.13 1.2 34.2 54 -7.2 19.1
15:35 1022 30.18 851 25.13 1.1 34.1 49 -8.3 17
15:40 1022 30.18 851 25.13 0.9 33.7 50 -8.3 17
15:45 1022 30.18 851 25.13 0.6 33 54 -7.8 17.9
15:50 1022 30.18 851 25.13 1 33.8 53 -7.5 18.5
15:55 1022 30.18 851 25.13 1.1 34 54 -7.3 18.9
16:00 1022 30.18 851 25.13 1.3 34.4 54 -7.1 19.3
16:05 1022 30.18 851 25.13 1.2 34.1 54 -7.1 19.1
16:10 1022 30.18 851 25.13 1 33.8 57 -6.6 20.1
16:15 1022 30.18 851 25.13 0.9 33.6 56 -6.9 19.5
16:20 1022 30.18 851 25.13 0.6 33 55 -7.5 18.6
16:25 1022 30.18 851 25.13 0.5 33 53 -7.9 17.7
16:30 1022 30.18 851 25.13 0.4 32.8 52 -8.4 17
16:35 1022 30.18 851 25.13 0.3 32.6 53 -8.2 17.3
16:40 1022 30.18 851 25.13 0.3 32.6 52 -8.3 17
16:45 1022 30.18 851 25.13 0.6 33 51 -8.4 16.9
16:50 1022 30.18 851 25.13 0.3 32.6 54 -8 17.7
16:55 1022 30.18 851 25.13 0.5 32.9 57 -7 19.4
17:00 1022 30.18 851 25.13 0.4 32.7 59 -6.8 19.7
17:05 1022 30.18 851 25.13 0.2 32.4 61 -6.5 20.3
17:10 1022 30.18 851 25.13 0.4 32.7 61 -6.2 20.8
17:15 1022 30.18 851 25.13 0.1 32.2 61 -6.5 20.3
17:20 1022 30.18 852 25.16 -0.3 31.5 61 -6.9 19.6
17:25 1022 30.18 852 25.16 -0.6 30.9 61 -7.3 18.8
17:30 1023 30.21 852 25.16 -0.7 30.7 63 -6.9 19.6
17:35 1023 30.21 852 25.16 -0.8 30.6 64 -6.8 19.8
17:40 1023 30.21 852 25.16 -0.8 30.6 65 -6.5 20.2
17:45 1023 30.21 852 25.16 -0.8 30.6 64 -6.7 20
17:50 1023 30.21 852 25.16 -0.7 30.8 65 -6.5 20.2
17:55 1023 30.21 852 25.16 -1.1 30 68 -6.2 20.9
18:00 1023 30.21 852 25.16 -1.6 29.1 69 -6.5 20.3
18:05 1023 30.21 852 25.16 -1.5 29.2 71 -6.1 21.1
18:10 1023 30.21 852 25.16 -1.6 29.2 71 -6.1 21.1
18:15 1023 30.21 852 25.16 -1.5 29.3 71 -6 21.1
18:20 1023 30.21 852 25.16 -1.5 29.3 72 -6 21.2
18:25 1023 30.21 852 25.16 -1.8 28.8 72 -6.2 20.9
18:30 1023 30.21 852 25.16 -1.9 28.6 72 -6.3 20.6
18:35 1023 30.21 852 25.16 -2 28.5 72 -6.3 20.6
18:40 1023 30.21 852 25.16 -2.1 28.3 72 -6.4 20.4
18:45 1023 30.21 852 25.16 -2.3 27.8 73 -6.6 20.2
18:50 1023 30.21 852 25.16 -2.5 27.6 72 -6.8 19.8
18:55 1023 30.21 852 25.16 -2.2 28.1 72 -6.6 20.1
19:00 1023 30.21 852 25.16 -2.4 27.7 73 -6.6 20.2
19:05 1023 30.21 852 25.16 -2.4 27.7 73 -6.6 20.2
19:10 1023 30.21 852 25.16 -2.2 28.1 72 -6.5 20.3
19:15 1023 30.21 852 25.16 -2 28.3 72 -6.5 20.3
19:20 1023 30.21 852 25.16 -1.9 28.5 71 -6.5 20.4
19:25 1023 30.21 852 25.16 -2 28.3 71 -6.7 19.9
19:30 1023 30.21 852 25.16 -1.9 28.5 71 -6.5 20.2
19:35 1023 30.21 853 25.19 -1.9 28.7 71 -6.5 20.3
19:40 1023 30.21 852 25.16 -2 28.5 72 -6.3 20.6
19:45 1023 30.21 852 25.16 -2.4 27.8 76 -6 21.2
19:50 1023 30.21 852 25.16 -2.7 27.2 76 -6.3 20.7
19:55 1023 30.21 852 25.16 -2.8 27 76 -6.4 20.5
20:00 1023 30.21 852 25.16 -2.9 26.8 76 -6.5 20.3
20:05 1023 30.21 852 25.16 -2.9 26.8 76 -6.6 20.2
20:10 1023 30.21 852 25.16 -2.8 26.9 76 -6.5 20.2
20:15 1023 30.21 852 25.16 -2.8 26.9 75 -6.6 20.1
20:20 1023 30.21 852 25.16 -2.7 27.1 74 -6.7 19.9
20:25 1023 30.21 852 25.16 -2.6 27.4 72 -7 19.5
20:30 1023 30.21 852 25.16 -2.5 27.4 71 -7.2 19.1
20:35 1023 30.21 852 25.16 -2.5 27.4 67 -7.8 17.9
20:40 1023 30.21 852 25.16 -2.5 27.6 68 -7.5 18.4
20:45 1023 30.21 852 25.16 -2.5 27.5 68 -7.7 18.2
20:50 1023 30.21 852 25.16 -2.6 27.4 71 -7 19.3
20:55 1023 30.21 852 25.16 -2.7 27.2 68 -7.8 18
21:00 1023 30.21 852 25.16 -2.6 27.3 69 -7.6 18.3
21:05 1023 30.21 852 25.16 -2.6 27.3 70 -7.3 18.8
21:10 1023 30.21 852 25.16 -2.7 27.1 70 -7.5 18.5
21:15 1023 30.21 852 25.16 -2.8 27 70 -7.5 18.6
21:20 1023 30.21 852 25.16 -2.8 27 71 -7.4 18.7
21:25 1023 30.21 852 25.16 -2.9 26.8 70 -7.6 18.3
21:30 1023 30.21 852 25.16 -3 26.6 71 -7.5 18.6
21:35 1023 30.21 852 25.16 -3 26.6 72 -7.3 18.8
21:40 1023 30.21 852 25.16 -3 26.7 72 -7.4 18.7
21:45 1023 30.21 852 25.16 -3 26.6 73 -7.2 19
21:50 1023 30.21 852 25.16 -3.1 26.5 73 -7.2 19.1
21:55 1023 30.21 852 25.16 -3.3 26.1 73 -7.4 18.7
22:00 1023 30.21 852 25.16 -3.3 26 73 -7.5 18.4
22:05 1023 30.21 852 25.16 -3.3 26.1 72 -7.6 18.2
22:10 1023 30.21 852 25.16 -3.3 26.1 73 -7.5 18.5
22:15 1023 30.21 852 25.16 -3.1 26.5 72 -7.5 18.5
22:20 1023 30.21 852 25.16 -2.9 26.7 72 -7.4 18.7
22:25 1023 30.21 852 25.16 -2.9 26.8 71 -7.4 18.7
22:30 1023 30.21 852 25.16 -2.9 26.8 71 -7.4 18.7
22:35 1023 30.21 852 25.16 -2.9 26.9 71 -7.3 18.8
22:40 1023 30.21 852 25.16 -2.9 26.9 72 -7.2 19
22:45 1023 30.21 852 25.16 -2.9 26.8 73 -7.1 19.2
22:50 1023 30.21 852 25.16 -2.8 26.9 73 -7.1 19.3
22:55 1023 30.21 852 25.16 -2.9 26.8 73 -7.1 19.2
23:00 1023 30.21 852 25.16 -2.9 26.8 73 -7.1 19.2
23:05 1023 30.21 852 25.16 -3 26.7 74 -7.1 19.3
23:10 1023 30.21 852 25.16 -3 26.5 74 -7 19.3
23:15 1023 30.21 852 25.16 -3.1 26.5 74 -7 19.3
23:20 1023 30.21 852 25.16 -3.1 26.5 74 -7.2 19.1
23:25 1023 30.21 852 25.16 -3.1 26.4 73 -7.2 19
23:30 1023 30.21 852 25.16 -3.1 26.4 73 -7.3 18.9
23:35 1023 30.21 852 25.16 -3.1 26.4 72 -7.4 18.6
23:40 1023 30.21 852 25.16 -3.2 26.2 72 -7.6 18.3
23:45 1023 30.21 852 25.16 -3.2 26.3 71 -7.8 18
23:50 1023 30.21 852 25.16 -3.2 26.3 70 -7.8 17.9
23:55 1023 30.21 852 25.16 -3.1 26.4 70 -7.9 17.8
24:00 1023 30.21 852 25.16 -3.1 26.3 69 -8.1 17.5